createdAt,value
2023-04-22T00:00:23.446Z,88.37
2023-04-22T00:01:27.777Z,88.00
2023-04-22T00:02:32.127Z,87.42
2023-04-22T00:03:35.803Z,88.31
2023-04-22T00:04:42.302Z,87.79
2023-04-22T00:05:48.778Z,88.71
2023-04-22T00:06:52.918Z,87.78
2023-04-22T00:08:04.879Z,86.85
2023-04-22T00:09:08.402Z,87.55
2023-04-22T00:10:11.265Z,88.84
2023-04-22T00:11:15.090Z,89.09
2023-04-22T00:12:17.745Z,87.64
2023-04-22T00:13:23.560Z,88.03
2023-04-22T00:14:26.955Z,87.56
2023-04-22T00:15:30.136Z,87.59
2023-04-22T00:16:34.439Z,87.89
2023-04-22T00:17:37.674Z,87.45
2023-04-22T00:18:41.079Z,86.59
2023-04-22T00:19:44.587Z,86.38
2023-04-22T00:20:48.413Z,87.16
2023-04-22T00:21:50.874Z,87.91
2023-04-22T00:22:55.274Z,88.00
2023-04-22T00:24:00.114Z,87.27
2023-04-22T00:25:03.754Z,87.51
2023-04-22T00:26:07.180Z,86.09
2023-04-22T00:27:11.835Z,87.17
2023-04-22T00:28:15.993Z,87.85
2023-04-22T00:29:19.362Z,87.41
2023-04-22T00:30:24.006Z,86.02
2023-04-22T00:31:29.032Z,85.85
2023-04-22T00:32:32.282Z,85.56
2023-04-22T00:33:36.715Z,85.80
2023-04-22T00:34:40.223Z,85.34
2023-04-22T00:35:43.123Z,85.01
2023-04-22T00:36:45.778Z,86.09
2023-04-22T00:37:49.662Z,85.40
2023-04-22T00:38:52.777Z,85.49
2023-04-22T00:39:57.223Z,86.06
2023-04-22T00:41:01.049Z,86.67
2023-04-22T00:42:08.904Z,86.83
2023-04-22T00:43:15.613Z,86.63
2023-04-22T00:44:19.296Z,85.52
2023-04-22T00:45:23.637Z,85.30
2023-04-22T00:46:29.565Z,85.25
2023-04-22T00:47:35.721Z,85.78
2023-04-22T00:48:38.540Z,85.92
2023-04-22T00:49:42.886Z,85.37
2023-04-22T00:50:49.097Z,85.09
2023-04-22T00:51:54.900Z,85.14
2023-04-22T00:52:58.064Z,84.08
2023-04-22T00:54:06.186Z,83.75
2023-04-22T00:55:10.113Z,83.54
2023-04-22T00:56:14.454Z,83.96
2023-04-22T00:57:19.215Z,84.47
2023-04-22T00:58:23.174Z,84.11
2023-04-22T00:59:28.520Z,84.33
2023-04-22T01:00:33.726Z,85.30
2023-04-22T01:01:37.926Z,84.75
2023-04-22T01:02:41.701Z,84.11
2023-04-22T01:03:46.750Z,83.89
2023-04-22T01:04:53.888Z,84.49
2023-04-22T01:05:59.067Z,83.70
2023-04-22T01:07:05.333Z,83.36
2023-04-22T01:08:08.161Z,83.08
2023-04-22T01:09:11.881Z,83.29
2023-04-22T01:10:14.963Z,82.75
2023-04-22T01:11:21.379Z,82.27
2023-04-22T01:12:25.750Z,81.71
2023-04-22T01:13:31.165Z,81.76
2023-04-22T01:14:35.166Z,82.58
2023-04-22T01:15:38.474Z,83.45
2023-04-22T01:16:43.030Z,83.38
2023-04-22T01:17:48.066Z,83.18
2023-04-22T01:18:51.251Z,82.74
2023-04-22T01:19:55.058Z,82.43
2023-04-22T01:20:57.736Z,82.16
2023-04-22T01:22:04.709Z,82.45
2023-04-22T01:23:09.861Z,83.54
2023-04-22T01:24:14.656Z,83.33
2023-04-22T01:25:18.267Z,83.22
2023-04-22T01:26:23.097Z,83.12
2023-04-22T01:27:26.420Z,82.62
2023-04-22T01:28:30.131Z,81.81
2023-04-22T01:29:37.392Z,81.36
2023-04-22T01:30:43.093Z,80.67
2023-04-22T01:31:47.223Z,80.64
2023-04-22T01:32:51.060Z,79.94
2023-04-22T01:33:55.475Z,79.68
2023-04-22T01:34:58.999Z,80.01
2023-04-22T01:36:02.683Z,79.66
2023-04-22T01:37:07.339Z,79.49
2023-04-22T01:38:10.738Z,79.66
2023-04-22T01:39:14.260Z,79.38
2023-04-22T01:40:18.898Z,79.28
2023-04-22T01:41:23.030Z,79.27
2023-04-22T01:42:28.408Z,79.46
2023-04-22T01:43:31.714Z,79.74
2023-04-22T01:44:35.109Z,79.48
2023-04-22T01:45:40.309Z,79.71
2023-04-22T01:46:43.720Z,79.53
2023-04-22T01:47:46.991Z,79.31
2023-04-22T01:48:53.612Z,79.24
2023-04-22T01:50:00.796Z,79.46
2023-04-22T01:51:04.188Z,79.17
2023-04-22T01:52:08.731Z,79.30
2023-04-22T01:53:12.365Z,79.27
2023-04-22T01:54:17.632Z,79.41
2023-04-22T01:55:25.607Z,79.26
2023-04-22T01:56:29.221Z,79.15
2023-04-22T01:57:32.612Z,78.85
2023-04-22T01:58:36.476Z,78.94
2023-04-22T01:59:42.566Z,78.48
2023-04-22T02:00:47.476Z,78.51
2023-04-22T02:01:51.612Z,78.60
2023-04-22T02:02:55.123Z,78.62
2023-04-22T02:03:59.928Z,78.44
2023-04-22T02:05:02.905Z,78.06
2023-04-22T02:06:05.481Z,78.14
2023-04-22T02:07:08.870Z,78.62
2023-04-22T02:08:12.720Z,78.10
2023-04-22T02:09:17.229Z,78.37
2023-04-22T02:10:22.626Z,78.12
2023-04-22T02:11:26.251Z,78.33
2023-04-22T02:12:29.741Z,78.21
2023-04-22T02:13:43.664Z,78.03
2023-04-22T02:14:49.459Z,77.83
2023-04-22T02:15:53.440Z,77.74
2023-04-22T02:16:58.459Z,78.07
2023-04-22T02:18:03.148Z,78.45
2023-04-22T02:19:06.107Z,77.53
2023-04-22T02:20:13.658Z,77.57
2023-04-22T02:21:16.899Z,77.82
2023-04-22T02:22:19.668Z,78.23
2023-04-22T02:23:25.678Z,78.30
2023-04-22T02:24:30.217Z,78.56
2023-04-22T02:25:34.661Z,78.85
2023-04-22T02:26:38.071Z,78.75
2023-04-22T02:27:41.996Z,78.93
2023-04-22T02:28:46.221Z,79.93
2023-04-22T02:29:49.950Z,79.51
2023-04-22T02:30:53.693Z,79.50
2023-04-22T02:32:00.715Z,79.77
2023-04-22T02:33:05.986Z,80.16
2023-04-22T02:34:09.188Z,80.21
2023-04-22T02:35:12.492Z,79.92
2023-04-22T02:36:15.890Z,80.18
2023-04-22T02:37:20.713Z,80.49
2023-04-22T02:38:24.461Z,80.30
2023-04-22T02:39:28.790Z,80.60
2023-04-22T02:40:33.349Z,79.92
2023-04-22T02:41:36.233Z,79.95
2023-04-22T02:42:39.950Z,79.52
2023-04-22T02:43:45.401Z,79.46
2023-04-22T02:44:49.272Z,79.51
2023-04-22T02:45:53.395Z,79.74
2023-04-22T02:46:58.001Z,79.59
2023-04-22T02:48:01.515Z,79.76
2023-04-22T02:49:05.968Z,79.68
2023-04-22T02:50:09.292Z,79.73
2023-04-22T02:51:13.936Z,80.00
2023-04-22T02:52:17.132Z,79.96
2023-04-22T02:53:20.528Z,80.09
2023-04-22T02:54:24.125Z,79.83
2023-04-22T02:55:27.854Z,79.59
2023-04-22T02:56:32.310Z,79.68
2023-04-22T02:57:35.909Z,79.54
2023-04-22T02:58:39.410Z,79.36
2023-04-22T02:59:43.656Z,79.41
2023-04-22T03:00:48.984Z,79.66
2023-04-22T03:01:52.558Z,79.37
2023-04-22T03:03:03.558Z,79.27
2023-04-22T03:04:08.737Z,78.35
2023-04-22T03:05:12.269Z,77.96
2023-04-22T03:06:14.808Z,77.24
2023-04-22T03:07:19.798Z,76.80
2023-04-22T03:08:23.319Z,76.34
2023-04-22T03:09:25.750Z,76.23
2023-04-22T03:10:29.272Z,76.37
2023-04-22T03:11:33.585Z,76.58
2023-04-22T03:12:38.972Z,76.57
2023-04-22T03:13:41.545Z,76.38
2023-04-22T03:14:45.170Z,76.37
2023-04-22T03:15:49.066Z,76.21
2023-04-22T03:16:55.488Z,75.71
2023-04-22T03:18:03.453Z,75.35
2023-04-22T03:19:06.258Z,74.97
2023-04-22T03:20:09.867Z,74.38
2023-04-22T03:21:13.277Z,73.92
2023-04-22T03:22:17.102Z,73.89
2023-04-22T03:23:20.418Z,74.06
2023-04-22T03:24:23.686Z,73.69
2023-04-22T03:25:28.821Z,73.47
2023-04-22T03:26:32.265Z,73.57
2023-04-22T03:27:36.086Z,73.65
2023-04-22T03:28:40.858Z,73.96
2023-04-22T03:29:44.350Z,72.96
2023-04-22T03:30:48.035Z,72.51
2023-04-22T03:31:53.093Z,71.56
2023-04-22T03:32:56.981Z,71.26
2023-04-22T03:34:02.160Z,70.48
2023-04-22T03:35:07.004Z,70.00
2023-04-22T03:36:14.676Z,70.14
2023-04-22T03:37:17.740Z,70.54
2023-04-22T03:38:23.057Z,70.82
2023-04-22T03:39:28.136Z,70.32
2023-04-22T03:40:30.574Z,69.86
2023-04-22T03:41:34.290Z,69.75
2023-04-22T03:42:38.246Z,69.03
2023-04-22T03:43:41.715Z,68.94
2023-04-22T03:44:53.474Z,68.47
2023-04-22T03:46:01.851Z,68.81
2023-04-22T03:47:07.166Z,69.28
2023-04-22T03:48:12.760Z,69.58
2023-04-22T03:49:18.151Z,69.63
2023-04-22T03:50:23.652Z,69.63
2023-04-22T03:51:29.636Z,69.61
2023-04-22T03:52:34.629Z,70.09
2023-04-22T03:53:38.117Z,69.86
2023-04-22T03:54:41.825Z,69.92
2023-04-22T03:55:45.256Z,70.23
2023-04-22T03:56:52.414Z,69.90
2023-04-22T03:58:00.603Z,69.28
2023-04-22T03:59:04.112Z,70.14
2023-04-22T04:00:08.967Z,69.82
2023-04-22T04:01:15.637Z,69.44
2023-04-22T04:02:19.905Z,68.05
2023-04-22T04:03:23.922Z,67.83
2023-04-22T04:04:30.245Z,67.81
2023-04-22T04:05:36.077Z,67.73
2023-04-22T04:06:40.024Z,66.36
2023-04-22T04:07:43.422Z,66.04
2023-04-22T04:08:50.329Z,65.90
2023-04-22T04:09:53.152Z,64.77
2023-04-22T04:10:55.702Z,64.59
2023-04-22T04:11:58.593Z,63.77
2023-04-22T04:13:04.509Z,63.74
2023-04-22T04:14:09.779Z,63.16
2023-04-22T04:15:22.162Z,63.12
2023-04-22T04:16:29.555Z,62.22
2023-04-22T04:17:34.829Z,61.92
2023-04-22T04:18:39.362Z,62.35
2023-04-22T04:19:43.351Z,62.07
2023-04-22T04:20:46.164Z,61.30
2023-04-22T04:21:49.782Z,62.01
2023-04-22T04:22:52.953Z,61.71
2023-04-22T04:23:56.781Z,61.40
2023-04-22T04:25:02.585Z,60.08
2023-04-22T04:26:09.127Z,59.42
2023-04-22T04:27:14.514Z,59.65
2023-04-22T04:28:19.886Z,59.79
2023-04-22T04:29:23.710Z,59.26
2023-04-22T04:30:27.836Z,59.27
2023-04-22T04:31:33.024Z,58.33
2023-04-22T04:32:38.156Z,57.99
2023-04-22T04:33:46.661Z,56.58
2023-04-22T04:34:53.015Z,55.73
2023-04-22T04:35:58.802Z,54.83
2023-04-22T04:37:04.381Z,55.31
2023-04-22T04:38:08.766Z,54.75
2023-04-22T04:39:12.430Z,53.44
2023-04-22T04:40:16.187Z,54.06
2023-04-22T04:41:23.200Z,54.31
2023-04-22T04:42:27.071Z,55.16
2023-04-22T04:43:35.920Z,55.30
2023-04-22T04:44:41.170Z,55.08
2023-04-22T04:45:48.890Z,54.49
2023-04-22T04:46:55.192Z,52.81
2023-04-22T04:47:58.240Z,52.50
2023-04-22T04:49:06.268Z,51.30
2023-04-22T04:50:12.284Z,52.53
2023-04-22T04:51:20.420Z,51.47
2023-04-22T04:52:25.972Z,50.45
2023-04-22T04:53:29.814Z,48.14
2023-04-22T04:54:33.204Z,45.99
2023-04-22T04:55:37.122Z,44.22
2023-04-22T04:56:42.824Z,43.38
2023-04-22T04:57:46.660Z,42.00
2023-04-22T04:58:49.728Z,40.35
2023-04-22T04:59:57.503Z,39.44
2023-04-22T05:01:01.145Z,38.37
2023-04-22T05:02:06.127Z,36.54
2023-04-22T05:03:11.147Z,35.46
2023-04-22T05:04:14.892Z,34.18
2023-04-22T05:05:20.638Z,33.48
2023-04-22T05:06:25.884Z,32.62
2023-04-22T05:07:31.246Z,31.94
2023-04-22T05:08:33.593Z,31.21
2023-04-22T05:09:41.081Z,31.09
2023-04-22T05:10:44.671Z,30.57
2023-04-22T05:11:49.995Z,30.56
2023-04-22T05:12:56.073Z,31.31
2023-04-22T05:14:00.727Z,30.95
2023-04-22T05:15:09.466Z,30.56
2023-04-22T05:16:15.769Z,30.15
2023-04-22T05:17:19.542Z,29.63
2023-04-22T05:18:23.736Z,28.92
2023-04-22T05:19:27.244Z,28.75
2023-04-22T05:20:32.135Z,28.84
2023-04-22T05:21:35.611Z,29.45
2023-04-22T05:22:39.126Z,29.32
2023-04-22T05:23:43.690Z,29.50
2023-04-22T05:24:47.592Z,28.93
2023-04-22T05:25:53.586Z,28.89
2023-04-22T05:26:56.893Z,30.29
2023-04-22T05:28:00.241Z,30.68
2023-04-22T05:29:06.545Z,29.68
2023-04-22T05:30:11.591Z,29.23
2023-04-22T05:31:15.304Z,30.17
2023-04-22T05:32:19.201Z,30.33
2023-04-22T05:33:22.945Z,30.16
2023-04-22T05:34:27.174Z,29.84
2023-04-22T05:35:31.100Z,29.33
2023-04-22T05:36:35.039Z,28.86
2023-04-22T05:37:39.766Z,28.89
2023-04-22T05:38:42.851Z,29.52
2023-04-22T05:39:49.208Z,29.93
2023-04-22T05:40:52.697Z,30.39
2023-04-22T05:41:59.445Z,31.41
2023-04-22T05:43:08.530Z,31.96
2023-04-22T05:44:12.298Z,34.28
2023-04-22T05:45:16.253Z,33.85
2023-04-22T05:46:20.673Z,33.86
2023-04-22T05:47:26.493Z,33.29
2023-04-22T05:48:33.301Z,33.19
2023-04-22T05:49:39.868Z,33.46
2023-04-22T05:52:04.411Z,35.02
2023-04-22T05:53:08.977Z,34.53
2023-04-22T05:54:13.081Z,34.45
2023-04-22T05:55:19.544Z,34.55
2023-04-22T05:56:26.032Z,34.43
2023-04-22T05:57:29.755Z,34.87
2023-04-22T05:58:34.938Z,34.45
2023-04-22T05:59:40.485Z,34.07
2023-04-22T06:00:44.246Z,34.47
2023-04-22T06:01:48.902Z,35.22
2023-04-22T06:02:54.017Z,36.05
2023-04-22T06:03:57.239Z,35.31
2023-04-22T06:05:01.336Z,35.19
2023-04-22T06:06:06.522Z,34.63
2023-04-22T06:07:14.067Z,34.44
2023-04-22T06:08:17.563Z,32.66
2023-04-22T06:09:22.005Z,31.36
2023-04-22T06:10:25.717Z,32.43
2023-04-22T06:11:29.833Z,32.14
2023-04-22T06:12:34.312Z,31.70
2023-04-22T06:13:38.872Z,31.46
2023-04-22T06:14:41.616Z,31.51
2023-04-22T06:15:45.514Z,31.21
2023-04-22T06:16:51.026Z,31.91
2023-04-22T06:17:54.177Z,32.32
2023-04-22T06:18:57.928Z,32.83
2023-04-22T06:20:01.436Z,33.68
2023-04-22T06:21:06.623Z,34.31
2023-04-22T06:22:28.697Z,34.56
2023-04-22T06:23:32.320Z,33.38
2023-04-22T06:24:38.851Z,33.09
2023-04-22T06:25:44.340Z,32.99
2023-04-22T06:26:48.377Z,32.24
2023-04-22T06:27:51.633Z,32.02
2023-04-22T06:28:59.889Z,31.87
2023-04-22T06:30:03.705Z,31.32
2023-04-22T06:31:07.114Z,32.02
2023-04-22T06:32:10.908Z,32.66
2023-04-22T06:33:14.265Z,31.52
2023-04-22T06:34:20.700Z,30.56
2023-04-22T06:35:24.449Z,30.11
2023-04-22T06:36:30.758Z,29.65
2023-04-22T06:37:37.135Z,28.47
2023-04-22T06:38:42.956Z,27.60
2023-04-22T06:40:07.997Z,27.58
2023-04-22T06:41:28.367Z,26.30
2023-04-22T06:42:37.494Z,24.49
2023-04-22T06:43:55.511Z,23.69
2023-04-22T06:45:01.152Z,23.77
2023-04-22T06:46:06.324Z,23.82
2023-04-22T06:47:21.225Z,23.33
2023-04-22T06:48:29.600Z,23.01
2023-04-22T06:49:45.486Z,22.50
2023-04-22T06:52:07.784Z,21.82
2023-04-22T06:53:13.583Z,21.21
2023-04-22T06:54:17.951Z,21.79
2023-04-22T06:55:21.249Z,22.72
2023-04-22T06:56:25.324Z,20.88
2023-04-22T06:57:31.915Z,21.14
2023-04-22T06:58:36.882Z,21.23
2023-04-22T06:59:40.780Z,21.34
2023-04-22T07:00:44.916Z,21.85
2023-04-22T07:01:50.049Z,22.21
2023-04-22T07:02:56.599Z,22.13
2023-04-22T07:04:00.188Z,21.80
2023-04-22T07:05:03.725Z,21.76
2023-04-22T07:06:08.061Z,22.89
2023-04-22T07:07:11.901Z,22.04
2023-04-22T07:08:14.883Z,21.43
2023-04-22T07:09:18.277Z,20.92
2023-04-22T07:10:22.097Z,20.22
2023-04-22T07:11:29.109Z,20.24
2023-04-22T07:12:36.837Z,19.61
2023-04-22T07:13:40.019Z,20.94
2023-04-22T07:14:46.043Z,21.19
2023-04-22T07:15:49.443Z,21.15
2023-04-22T07:16:54.318Z,21.00
2023-04-22T07:17:57.227Z,21.67
2023-04-22T07:18:59.677Z,22.68
2023-04-22T07:20:03.147Z,22.55
2023-04-22T07:21:07.915Z,22.87
2023-04-22T07:22:11.210Z,23.61
2023-04-22T07:23:14.787Z,24.73
2023-04-22T07:24:18.208Z,24.72
2023-04-22T07:25:21.815Z,25.76
2023-04-22T07:26:25.322Z,25.96
2023-04-22T07:27:29.683Z,25.54
2023-04-22T07:28:33.166Z,26.53
2023-04-22T07:29:37.069Z,26.79
2023-04-22T07:30:39.644Z,27.29
2023-04-22T07:31:43.491Z,27.98
2023-04-22T07:32:49.050Z,28.72
2023-04-22T07:33:53.850Z,28.44
2023-04-22T07:34:57.641Z,28.56
2023-04-22T07:36:01.270Z,28.79
2023-04-22T07:37:05.655Z,28.56
2023-04-22T07:38:09.878Z,29.64
2023-04-22T07:39:16.049Z,29.70
2023-04-22T07:40:19.345Z,29.89
2023-04-22T07:41:22.850Z,29.87
2023-04-22T07:42:26.125Z,28.36
2023-04-22T07:43:30.073Z,29.04
2023-04-22T07:44:34.214Z,29.67
2023-04-22T07:45:38.991Z,29.47
2023-04-22T07:46:45.595Z,29.83
2023-04-22T07:47:48.769Z,29.34
2023-04-22T07:48:51.466Z,28.62
2023-04-22T07:49:55.474Z,28.83
2023-04-22T07:50:58.982Z,29.18
2023-04-22T07:52:01.440Z,28.53
2023-04-22T07:53:05.581Z,28.71
2023-04-22T07:54:08.986Z,28.01
2023-04-22T07:55:12.358Z,27.95
2023-04-22T07:56:14.635Z,26.62
2023-04-22T07:57:17.917Z,26.04
2023-04-22T07:58:21.071Z,25.31
2023-04-22T07:59:24.939Z,26.73
2023-04-22T08:00:30.887Z,27.14
2023-04-22T08:01:34.218Z,26.36
2023-04-22T08:02:37.499Z,27.45
2023-04-22T08:03:41.084Z,27.80
2023-04-22T08:04:45.162Z,27.45
2023-04-22T08:05:49.840Z,26.94
2023-04-22T08:06:53.126Z,26.71
2023-04-22T08:07:56.531Z,27.32
2023-04-22T08:09:00.874Z,27.12
2023-04-22T08:10:03.740Z,27.10
2023-04-22T08:11:08.314Z,28.45
2023-04-22T08:12:11.806Z,27.73
2023-04-22T08:13:16.473Z,28.48
2023-04-22T08:14:19.958Z,28.48
2023-04-22T08:15:24.837Z,27.58
2023-04-22T08:16:28.187Z,25.99
2023-04-22T08:17:31.505Z,25.73
2023-04-22T08:18:34.849Z,25.35
2023-04-22T08:19:39.525Z,25.38
2023-04-22T08:20:44.226Z,25.34
2023-04-22T08:21:46.771Z,25.98
2023-04-22T08:22:51.510Z,27.10
2023-04-22T08:23:56.582Z,26.75
2023-04-22T08:25:00.467Z,27.08
2023-04-22T08:26:04.162Z,28.11
2023-04-22T08:27:07.764Z,27.61
2023-04-22T08:28:13.099Z,28.14
2023-04-22T08:29:16.559Z,27.91
2023-04-22T08:30:20.576Z,27.88
2023-04-22T08:31:24.119Z,27.23
2023-04-22T08:32:29.546Z,27.07
2023-04-22T08:33:32.667Z,26.61
2023-04-22T08:34:37.125Z,26.25
2023-04-22T08:35:41.458Z,26.22
2023-04-22T08:36:44.634Z,25.85
2023-04-22T08:37:48.182Z,26.22
2023-04-22T08:38:51.644Z,26.90
2023-04-22T08:39:54.951Z,26.93
2023-04-22T08:41:03.035Z,27.24
2023-04-22T08:42:06.969Z,27.78
2023-04-22T08:43:10.476Z,27.36
2023-04-22T08:44:14.811Z,27.55
2023-04-22T08:45:17.587Z,27.15
2023-04-22T08:46:23.031Z,27.31
2023-04-22T08:47:26.373Z,26.53
2023-04-22T08:48:29.793Z,27.54
2023-04-22T08:49:36.446Z,27.90
2023-04-22T08:50:40.499Z,28.23
2023-04-22T08:51:43.547Z,27.92
2023-04-22T08:52:48.497Z,27.50
2023-04-22T08:53:50.804Z,28.29
2023-04-22T08:54:53.923Z,29.22
2023-04-22T08:55:58.421Z,28.79
2023-04-22T08:57:03.113Z,27.37
2023-04-22T08:58:06.488Z,27.54
2023-04-22T08:59:12.662Z,28.14
2023-04-22T09:00:18.016Z,28.79
2023-04-22T09:01:23.561Z,28.69
2023-04-22T09:02:28.676Z,29.22
2023-04-22T09:03:32.423Z,28.71
2023-04-22T09:04:35.974Z,28.47
2023-04-22T09:05:40.784Z,29.58
2023-04-22T09:06:43.974Z,28.29
2023-04-22T09:07:49.804Z,28.90
2023-04-22T09:08:52.561Z,27.69
2023-04-22T09:09:55.758Z,28.30
2023-04-22T09:11:00.919Z,28.66
2023-04-22T09:12:06.105Z,28.90
2023-04-22T09:13:11.165Z,28.47
2023-04-22T09:14:14.686Z,28.84
2023-04-22T09:15:18.594Z,29.08
2023-04-22T09:16:21.977Z,29.19
2023-04-22T09:17:36.740Z,29.08
2023-04-22T09:18:41.952Z,27.37
2023-04-22T09:19:45.261Z,27.81
2023-04-22T09:20:49.285Z,27.99
2023-04-22T09:21:54.416Z,28.10
2023-04-22T09:23:01.841Z,27.95
2023-04-22T09:24:06.071Z,24.97
2023-04-22T09:25:26.608Z,25.06
2023-04-22T09:26:34.307Z,23.94
2023-04-22T09:27:37.995Z,24.01
2023-04-22T09:28:42.128Z,24.21
2023-04-22T09:29:53.028Z,24.06
2023-04-22T09:30:57.286Z,23.92
2023-04-22T09:32:01.187Z,25.22
2023-04-22T09:33:05.579Z,24.06
2023-04-22T09:34:12.454Z,24.25
2023-04-22T09:35:17.287Z,24.94
2023-04-22T09:36:26.147Z,24.31
2023-04-22T09:37:36.108Z,24.58
2023-04-22T09:38:34.766Z,24.71
2023-04-22T09:39:38.230Z,24.96
2023-04-22T09:40:44.238Z,26.30
2023-04-22T09:41:51.035Z,26.93
2023-04-22T09:42:56.125Z,26.31
2023-04-22T09:43:59.531Z,27.65
2023-04-22T09:45:03.008Z,27.00
2023-04-22T09:46:06.308Z,26.49
2023-04-22T09:47:12.028Z,26.07
2023-04-22T09:48:16.374Z,25.84
2023-04-22T09:49:20.586Z,24.92
2023-04-22T09:50:26.218Z,24.11
2023-04-22T09:51:29.992Z,25.16
2023-04-22T09:52:33.624Z,25.82
2023-04-22T09:53:38.697Z,26.59
2023-04-22T09:54:43.838Z,24.75
2023-04-22T09:55:49.022Z,24.39
2023-04-22T09:56:52.535Z,24.74
2023-04-22T09:57:57.218Z,23.55
2023-04-22T09:59:01.725Z,22.43
2023-04-22T10:00:08.377Z,23.16
2023-04-22T10:01:11.185Z,22.56
2023-04-22T10:02:14.937Z,22.42
2023-04-22T10:03:21.234Z,21.82
2023-04-22T10:04:25.769Z,20.84
2023-04-22T10:05:31.214Z,21.36
2023-04-22T10:06:34.938Z,21.60
2023-04-22T10:07:40.654Z,20.11
2023-04-22T10:08:45.187Z,20.49
2023-04-22T10:09:48.586Z,20.50
2023-04-22T10:10:52.925Z,21.09
2023-04-22T10:11:58.549Z,21.10
2023-04-22T10:13:03.366Z,21.55
2023-04-22T10:14:06.781Z,21.67
2023-04-22T10:15:10.193Z,22.84
2023-04-22T10:16:14.502Z,23.63
2023-04-22T10:17:18.342Z,23.30
2023-04-22T10:18:27.336Z,23.95
2023-04-22T10:19:32.665Z,22.55
2023-04-22T10:20:39.316Z,23.03
2023-04-22T10:21:43.694Z,23.07
2023-04-22T10:22:48.799Z,24.38
2023-04-22T10:23:52.218Z,23.48
2023-04-22T10:24:57.906Z,24.38
2023-04-22T10:26:01.393Z,24.60
2023-04-22T10:27:08.200Z,24.34
2023-04-22T10:28:13.717Z,25.04
2023-04-22T10:29:19.548Z,24.22
2023-04-22T10:30:31.277Z,25.46
2023-04-22T10:31:39.127Z,24.89
2023-04-22T10:32:42.940Z,25.79
2023-04-22T10:33:46.009Z,26.01
2023-04-22T10:34:49.931Z,26.28
2023-04-22T10:36:11.277Z,26.44
2023-04-22T10:37:16.760Z,26.19
2023-04-22T10:38:19.864Z,26.54
2023-04-22T10:39:23.903Z,25.99
2023-04-22T10:40:26.477Z,25.87
2023-04-22T10:41:31.127Z,24.67
2023-04-22T10:42:37.027Z,25.50
2023-04-22T10:43:44.466Z,24.95
2023-04-22T10:44:49.058Z,25.88
2023-04-22T10:45:52.702Z,25.85
2023-04-22T10:46:58.219Z,25.64
2023-04-22T10:48:03.824Z,24.75
2023-04-22T10:49:08.007Z,24.72
2023-04-22T10:50:24.783Z,24.67
2023-04-22T10:51:43.194Z,24.65
2023-04-22T10:52:47.947Z,24.84
2023-04-22T10:53:50.303Z,24.27
2023-04-22T10:54:54.426Z,24.12
2023-04-22T10:55:57.790Z,23.96
2023-04-22T10:57:04.799Z,23.78
2023-04-22T10:58:08.998Z,23.33
2023-04-22T10:59:20.373Z,23.49
2023-04-22T11:00:41.692Z,23.60
2023-04-22T11:01:37.549Z,24.81
2023-04-22T11:02:41.819Z,24.97
2023-04-22T11:03:46.389Z,24.60
2023-04-22T11:04:50.431Z,24.55
2023-04-22T11:05:55.902Z,24.60
2023-04-22T11:07:20.781Z,24.46
2023-04-22T11:08:26.109Z,24.66
2023-04-22T11:09:29.353Z,24.62
2023-04-22T11:10:34.723Z,24.93
2023-04-22T11:11:38.927Z,25.36
2023-04-22T11:12:44.610Z,25.28
2023-04-22T11:13:51.026Z,25.38
2023-04-22T11:14:54.868Z,24.59
2023-04-22T11:15:58.291Z,24.82
2023-04-22T11:17:04.556Z,24.57
2023-04-22T11:18:12.381Z,25.63
2023-04-22T11:19:16.023Z,24.60
2023-04-22T11:20:19.809Z,24.06
2023-04-22T11:21:22.715Z,24.08
2023-04-22T11:22:26.038Z,24.33
2023-04-22T11:23:30.492Z,24.54
2023-04-22T11:24:34.672Z,25.17
2023-04-22T11:25:38.175Z,24.39
2023-04-22T11:26:41.664Z,22.54
2023-04-22T11:27:45.081Z,22.57
2023-04-22T11:28:48.888Z,21.99
2023-04-22T11:30:02.222Z,22.57
2023-04-22T11:31:08.104Z,22.70
2023-04-22T11:32:14.258Z,23.20
2023-04-22T11:33:18.072Z,22.87
2023-04-22T11:34:22.388Z,23.07
2023-04-22T11:35:32.271Z,22.63
2023-04-22T11:36:37.450Z,22.72
2023-04-22T11:37:42.919Z,23.12
2023-04-22T11:38:47.489Z,23.31
2023-04-22T11:40:13.546Z,24.51
2023-04-22T11:41:00.872Z,25.57
2023-04-22T11:42:10.134Z,25.14
2023-04-22T11:43:13.428Z,25.00
2023-04-22T11:44:16.929Z,24.24
2023-04-22T11:45:22.179Z,25.07
2023-04-22T11:46:29.063Z,23.87
2023-04-22T11:47:33.111Z,24.46
2023-04-22T11:48:35.531Z,24.21
2023-04-22T11:49:39.653Z,23.75
2023-04-22T11:50:46.872Z,23.98
2023-04-22T11:51:55.036Z,24.02
2023-04-22T11:53:02.928Z,24.15
2023-04-22T11:54:06.734Z,23.99
2023-04-22T11:55:13.904Z,24.48
2023-04-22T11:56:16.545Z,23.79
2023-04-22T11:57:21.857Z,23.78
2023-04-22T11:58:27.342Z,23.06
2023-04-22T11:59:30.524Z,22.91
2023-04-22T12:00:35.710Z,22.34
2023-04-22T12:01:42.449Z,22.94
2023-04-22T12:02:49.677Z,23.14
2023-04-22T12:03:55.062Z,22.97
2023-04-22T12:04:59.362Z,23.14
2023-04-22T12:06:04.823Z,22.96
2023-04-22T12:07:08.286Z,22.64
2023-04-22T12:08:12.870Z,22.20
2023-04-22T12:09:15.987Z,22.23
2023-04-22T12:10:25.154Z,21.77
2023-04-22T12:11:30.731Z,21.95
2023-04-22T12:12:35.570Z,22.38
2023-04-22T12:13:44.452Z,23.65
2023-04-22T12:14:49.713Z,23.17
2023-04-22T12:15:58.832Z,23.52
2023-04-22T12:17:06.062Z,23.63
2023-04-22T12:18:10.032Z,24.26
2023-04-22T12:19:13.521Z,24.03
2023-04-22T12:20:17.435Z,24.55
2023-04-22T12:21:22.544Z,24.71
2023-04-22T12:22:28.412Z,25.17
2023-04-22T12:23:33.662Z,24.71
2023-04-22T12:24:37.416Z,25.02
2023-04-22T12:25:42.186Z,24.76
2023-04-22T12:26:45.575Z,24.78
2023-04-22T12:27:48.979Z,24.65
2023-04-22T12:28:53.246Z,24.63
2023-04-22T12:29:58.943Z,24.85
2023-04-22T12:31:03.303Z,24.72
2023-04-22T12:32:07.070Z,24.95
2023-04-22T12:33:10.371Z,25.23
2023-04-22T12:34:14.443Z,25.11
2023-04-22T12:35:19.092Z,24.31
2023-04-22T12:36:22.753Z,24.43
2023-04-22T12:37:25.119Z,25.10
2023-04-22T12:38:28.303Z,24.97
2023-04-22T12:39:32.728Z,24.82
2023-04-22T12:40:40.062Z,24.92
2023-04-22T12:41:44.784Z,24.60
2023-04-22T12:42:47.030Z,24.47
2023-04-22T12:43:50.546Z,25.30
2023-04-22T12:44:53.822Z,24.65
2023-04-22T12:45:56.136Z,24.34
2023-04-22T12:46:59.589Z,25.09
2023-04-22T12:48:03.233Z,24.53
2023-04-22T12:49:06.914Z,24.92
2023-04-22T12:50:09.468Z,24.71
2023-04-22T12:51:12.518Z,24.95
2023-04-22T12:52:15.364Z,24.96
2023-04-22T12:53:18.545Z,24.70
2023-04-22T12:54:22.350Z,24.35
2023-04-22T12:55:26.426Z,23.98
2023-04-22T12:56:30.848Z,24.34
2023-04-22T12:57:33.491Z,24.77
2023-04-22T12:58:38.552Z,24.91
2023-04-22T12:59:42.194Z,24.74
2023-04-22T13:00:46.685Z,24.53
2023-04-22T13:01:50.046Z,24.67
2023-04-22T13:02:54.065Z,25.05
2023-04-22T13:03:58.980Z,24.94
2023-04-22T13:05:02.515Z,25.39
2023-04-22T13:06:06.020Z,26.25
2023-04-22T13:07:09.518Z,25.46
2023-04-22T13:08:13.041Z,25.60
2023-04-22T13:09:16.848Z,25.32
2023-04-22T13:10:20.142Z,25.27
2023-04-22T13:11:26.340Z,26.18
2023-04-22T13:12:30.620Z,27.64
2023-04-22T13:13:34.013Z,26.96
2023-04-22T13:14:37.399Z,27.34
2023-04-22T13:15:41.421Z,27.49
2023-04-22T13:16:48.693Z,26.88
2023-04-22T13:17:51.927Z,26.39
2023-04-22T13:18:54.553Z,25.84
2023-04-22T13:19:59.309Z,26.45
2023-04-22T13:21:02.816Z,26.73
2023-04-22T13:22:05.498Z,27.05
2023-04-22T13:23:09.761Z,27.08
2023-04-22T13:24:12.898Z,26.52
2023-04-22T13:25:15.689Z,26.85
2023-04-22T13:26:18.448Z,26.93
2023-04-22T13:27:21.729Z,26.76
2023-04-22T13:28:25.802Z,26.99
2023-04-22T13:29:28.236Z,26.54
2023-04-22T13:30:32.063Z,27.12
2023-04-22T13:31:35.550Z,27.03
2023-04-22T13:32:40.148Z,27.86
2023-04-22T13:33:45.501Z,27.57
2023-04-22T13:34:48.916Z,26.48
2023-04-22T13:35:55.643Z,26.93
2023-04-22T13:36:58.314Z,26.09
2023-04-22T13:38:00.866Z,26.06
2023-04-22T13:39:07.109Z,26.44
2023-04-22T13:40:15.882Z,25.29
2023-04-22T13:41:19.228Z,25.25
2023-04-22T13:42:22.943Z,25.24
2023-04-22T13:43:26.659Z,25.91
2023-04-22T13:44:31.207Z,26.09
2023-04-22T13:45:33.454Z,25.74
2023-04-22T13:46:36.969Z,25.80
2023-04-22T13:47:40.587Z,25.24
2023-04-22T13:48:43.648Z,25.04
2023-04-22T13:49:47.182Z,25.10
2023-04-22T13:50:50.678Z,25.75
2023-04-22T13:51:53.650Z,25.53
2023-04-22T13:52:56.753Z,25.82
2023-04-22T13:54:02.542Z,25.90
2023-04-22T13:55:06.648Z,25.79
2023-04-22T13:56:09.234Z,25.76
2023-04-22T13:57:12.868Z,25.20